Time;durP1;ratioP1;P1;durP2;ratioP2;P2;SDS_P1;SDS_P2;PMS_P1;PMS_P2;Temp;Humidity;BMP_temperature;BMP_pressure;BME280_temperature;BME280_humidity;BME280_pressure;Samples;Min_cycle;Max_cycle;Signal;HPM_P1;HPM_P2
2023/07/18 00:03:15;;;;;;;8.13;2.85;;;;;;;14.61;100.00;101183.38;8290531;28;19922;-65
2023/07/18 00:07:15;;;;;;;9.20;3.10;;;;;;;14.49;100.00;101188.13;8290110;28;20048;-66
2023/07/18 00:11:16;;;;;;;11.15;3.47;;;;;;;14.40;100.00;101188.19;8290642;28;20046;-65
2023/07/18 00:15:16;;;;;;;9.02;3.03;;;;;;;14.40;100.00;101175.44;8290206;28;20044;-65
2023/07/18 00:19:17;;;;;;;8.60;3.45;;;;;;;14.33;100.00;101179.75;8293614;28;20042;-65
2023/07/18 00:23:18;;;;;;;8.88;3.45;;;;;;;14.27;100.00;101180.34;8297212;28;20122;-66
2023/07/18 00:27:19;;;;;;;11.10;3.97;;;;;;;14.34;100.00;101175.16;8296720;28;20132;-66
2023/07/18 00:31:19;;;;;;;8.35;3.75;;;;;;;14.28;100.00;101186.63;8296697;28;20503;-66
2023/07/18 00:35:20;;;;;;;7.53;3.60;;;;;;;14.11;100.00;101169.19;8296134;28;20549;-66
2023/07/18 00:39:23;;;;;;;8.70;3.67;;;;;;;14.12;100.00;101173.63;8296792;28;20038;-66
2023/07/18 00:43:24;;;;;;;8.75;3.13;;;;;;;14.08;100.00;101174.91;8296714;28;20046;-66
2023/07/18 00:47:24;;;;;;;10.07;3.70;;;;;;;13.99;100.00;101164.94;8295962;28;20037;-66
2023/07/18 00:51:25;;;;;;;9.85;3.60;;;;;;;14.02;100.00;101170.06;8294726;28;20042;-66
2023/07/18 00:55:26;;;;;;;9.70;4.22;;;;;;;13.92;100.00;101174.69;8303890;28;20045;-66
2023/07/18 00:59:27;;;;;;;8.75;3.53;;;;;;;13.90;100.00;101165.78;8296102;28;20100;-66
2023/07/18 01:03:29;;;;;;;12.63;3.97;;;;;;;13.87;100.00;101157.09;8295643;28;20563;-66
2023/07/18 01:07:30;;;;;;;7.78;3.42;;;;;;;13.76;100.00;101158.13;8295608;28;20061;-66
2023/07/18 01:11:32;;;;;;;8.10;3.67;;;;;;;13.72;100.00;101167.53;8295672;28;20104;-66
2023/07/18 01:15:34;;;;;;;7.78;3.60;;;;;;;13.75;100.00;101156.38;8295411;28;20030;-66
2023/07/18 01:19:35;;;;;;;10.98;4.03;;;;;;;13.69;100.00;101156.97;8295479;28;20034;-66
2023/07/18 01:23:36;;;;;;;7.47;3.67;;;;;;;13.69;100.00;101151.53;8295532;28;20046;-66
2023/07/18 01:27:37;;;;;;;9.55;3.50;;;;;;;13.74;100.00;101144.69;8294856;28;20045;-66
2023/07/18 01:31:37;;;;;;;8.35;3.42;;;;;;;13.55;100.00;101143.84;8294117;28;20110;-66
2023/07/18 01:35:38;;;;;;;8.77;3.90;;;;;;;13.34;100.00;101145.84;8293345;28;20087;-66
2023/07/18 01:39:38;;;;;;;7.78;3.35;;;;;;;13.28;100.00;101140.97;8294460;28;20038;-66
2023/07/18 01:43:39;;;;;;;8.93;3.50;;;;;;;13.40;100.00;101126.25;8294700;28;20065;-66
2023/07/18 01:47:42;;;;;;;9.77;3.40;;;;;;;13.28;100.00;101130.13;8293997;28;20061;-66
2023/07/18 01:51:42;;;;;;;6.95;3.47;;;;;;;13.32;100.00;101128.81;8294154;28;20033;-66
2023/07/18 01:55:43;;;;;;;10.80;3.88;;;;;;;13.22;100.00;101125.25;8292801;28;20033;-66
2023/07/18 01:59:43;;;;;;;15.18;3.40;;;;;;;13.33;100.00;101123.25;8293217;28;20049;-66
2023/07/18 02:03:43;;;;;;;5.47;3.22;;;;;;;13.19;100.00;101126.41;8293168;28;20042;-66
2023/07/18 02:07:44;;;;;;;6.85;3.33;;;;;;;13.18;100.00;101121.13;8293533;28;20133;-66
2023/07/18 02:11:45;;;;;;;6.85;3.60;;;;;;;13.14;100.00;101128.69;8292772;28;20459;-66
2023/07/18 02:15:45;;;;;;;8.77;3.92;;;;;;;13.15;100.00;101119.53;8293356;28;20050;-66
2023/07/18 02:19:46;;;;;;;13.10;4.13;;;;;;;13.28;100.00;101108.38;8293163;28;20042;-66
2023/07/18 02:23:46;;;;;;;12.45;3.92;;;;;;;13.17;100.00;101106.69;8290503;28;20096;-66
2023/07/18 02:27:46;;;;;;;7.82;3.20;;;;;;;13.00;100.00;101104.69;8292019;28;20045;-67
2023/07/18 02:31:47;;;;;;;6.72;2.97;;;;;;;12.76;100.00;101116.88;8292884;28;20034;-66
2023/07/18 02:35:49;;;;;;;7.95;3.58;;;;;;;12.80;100.00;101116.47;8292811;28;20037;-66
2023/07/18 02:39:50;;;;;;;8.13;3.10;;;;;;;12.91;100.00;101115.50;8289214;28;20510;-66
2023/07/18 02:43:51;;;;;;;9.88;3.97;;;;;;;12.83;100.00;101118.03;8291908;28;20046;-61
2023/07/18 02:47:51;;;;;;;9.55;3.67;;;;;;;12.95;100.00;101111.47;8292069;28;20056;-61
2023/07/18 02:51:52;;;;;;;8.70;3.08;;;;;;;12.99;100.00;101112.94;8284769;28;20455;-61
2023/07/18 02:55:52;;;;;;;6.80;3.25;;;;;;;12.91;100.00;101110.06;8287315;28;20096;-60
2023/07/18 02:59:53;;;;;;;7.60;3.25;;;;;;;12.81;100.00;101120.06;8289494;28;20492;-61
2023/07/18 03:03:54;;;;;;;5.35;3.00;;;;;;;12.62;100.00;101109.13;8289685;28;20504;-61
2023/07/18 03:07:55;;;;;;;10.30;3.47;;;;;;;12.62;100.00;101117.28;8289792;28;20507;-61
2023/07/18 03:11:55;;;;;;;8.73;3.28;;;;;;;12.49;100.00;101113.97;8274665;28;20044;-61
2023/07/18 03:15:56;;;;;;;6.85;3.17;;;;;;;12.52;100.00;101117.25;8287719;28;20050;-61
2023/07/18 03:19:57;;;;;;;7.95;3.70;;;;;;;12.57;100.00;101106.00;8289424;28;20181;-61
2023/07/18 03:23:58;;;;;;;7.25;2.92;;;;;;;12.45;100.00;101112.53;8285213;28;20045;-61
2023/07/18 03:27:58;;;;;;;8.10;3.35;;;;;;;12.44;100.00;101110.81;8287879;28;20500;-61
2023/07/18 03:32:00;;;;;;;5.68;2.80;;;;;;;12.56;100.00;101112.44;8289078;28;20397;-61
2023/07/18 03:36:01;;;;;;;6.20;3.47;;;;;;;12.51;100.00;101118.28;8288614;28;20057;-61
2023/07/18 03:40:06;;;;;;;13.40;3.55;;;;;;;12.41;100.00;101116.53;8289076;28;20126;-61
2023/07/18 03:44:06;;;;;;;9.80;3.28;;;;;;;12.50;100.00;101121.13;8283110;28;20073;-61
2023/07/18 03:48:07;;;;;;;5.25;3.13;;;;;;;12.45;100.00;101115.25;8288616;28;20185;-61
2023/07/18 03:52:07;;;;;;;8.85;2.95;;;;;;;12.29;100.00;101101.34;8288617;28;20089;-61
2023/07/18 03:56:08;;;;;;;9.75;3.10;;;;;;;12.41;100.00;101102.97;8286892;28;20384;-61
2023/07/18 04:00:13;;;;;;;7.47;3.22;;;;;;;12.69;100.00;101096.75;8279281;28;20038;-61
2023/07/18 04:04:15;;;;;;;6.40;3.17;;;;;;;12.67;100.00;101096.03;8286040;28;20415;-62
2023/07/18 04:08:18;;;;;;;7.50;3.03;;;;;;;12.66;100.00;101088.88;8279221;28;20054;-62
2023/07/18 04:12:18;;;;;;;12.23;3.03;;;;;;;12.62;100.00;101084.72;8289035;28;20430;-61
2023/07/18 04:16:19;;;;;;;7.65;3.00;;;;;;;12.59;100.00;101087.75;8288088;28;20041;-61
2023/07/18 04:20:21;;;;;;;8.07;3.13;;;;;;;12.56;100.00;101093.44;8288466;28;20049;-62
2023/07/18 04:24:22;;;;;;;8.50;2.90;;;;;;;12.77;100.00;101086.91;8287637;28;20486;-61
2023/07/18 04:28:23;;;;;;;5.28;2.90;;;;;;;13.06;100.00;101097.81;8288107;28;20108;-62
2023/07/18 04:32:23;;;;;;;4.60;2.85;;;;;;;13.18;100.00;101086.66;8288360;28;20038;-61
2023/07/18 04:36:25;;;;;;;6.15;2.60;;;;;;;13.24;100.00;101090.69;8287960;28;20034;-62
2023/07/18 04:40:25;;;;;;;6.60;3.33;;;;;;;13.31;100.00;101091.81;8278538;28;20042;-61
2023/07/18 04:44:25;;;;;;;9.15;3.05;;;;;;;13.53;100.00;101092.38;8286259;28;20053;-61
2023/07/18 04:48:26;;;;;;;6.28;2.95;;;;;;;13.64;100.00;101088.63;8282676;28;20052;-62
2023/07/18 04:52:27;;;;;;;11.25;2.90;;;;;;;13.79;99.17;101087.16;8287849;28;20108;-61
2023/07/18 04:56:27;;;;;;;5.03;2.92;;;;;;;14.10;99.18;101085.91;8287242;28;20038;-61
2023/07/18 05:00:29;;;;;;;3.78;2.40;;;;;;;14.16;97.83;101079.88;8284474;28;20041;-61
2023/07/18 05:04:29;;;;;;;5.95;2.65;;;;;;;14.21;97.07;101085.69;8288340;28;20103;-62
2023/07/18 05:08:30;;;;;;;6.65;2.53;;;;;;;14.40;96.77;101088.38;8295824;28;20117;-61
2023/07/18 05:12:30;;;;;;;7.70;2.42;;;;;;;14.47;96.42;101066.84;8295864;28;20514;-61
2023/07/18 05:16:31;;;;;;;11.48;3.20;;;;;;;14.74;96.87;101078.56;8295053;28;20088;-61
2023/07/18 05:20:31;;;;;;;6.72;2.85;;;;;;;14.83;95.60;101079.50;8289676;28;20038;-61
2023/07/18 05:24:32;;;;;;;9.98;3.33;;;;;;;14.89;95.49;101087.06;8291393;28;20045;-61
2023/07/18 05:28:32;;;;;;;5.80;2.22;;;;;;;15.23;94.84;101088.94;8291934;28;20069;-61
2023/07/18 05:32:33;;;;;;;5.75;2.40;;;;;;;15.66;92.23;101091.72;8293047;28;20108;-61
2023/07/18 05:36:33;;;;;;;7.65;2.38;;;;;;;15.73;92.98;101088.34;8285293;28;20118;-61
2023/07/18 05:40:34;;;;;;;8.95;2.13;;;;;;;16.10;90.74;101086.22;8293654;28;20041;-61
2023/07/18 05:44:34;;;;;;;5.40;2.10;;;;;;;16.27;89.10;101090.72;8294342;28;20451;-61
2023/07/18 05:48:34;;;;;;;5.00;1.80;;;;;;;16.62;88.27;101079.66;8294349;28;20549;-61
2023/07/18 05:52:35;;;;;;;6.53;1.75;;;;;;;16.94;86.77;101079.72;8294271;28;20208;-61
2023/07/18 05:56:36;;;;;;;10.70;2.28;;;;;;;17.00;87.22;101082.66;8293937;28;20038;-61
2023/07/18 06:00:36;;;;;;;5.63;1.52;;;;;;;17.32;85.12;101076.34;8294159;28;20044;-62
2023/07/18 06:04:37;;;;;;;3.03;2.05;;;;;;;17.75;83.69;101076.00;8289671;28;20046;-61
2023/07/18 06:08:37;;;;;;;5.13;2.25;;;;;;;18.20;82.32;101075.41;8287712;28;20033;-61
2023/07/18 06:12:38;;;;;;;6.80;1.58;;;;;;;18.38;81.76;101078.78;8287914;28;20034;-61
2023/07/18 06:16:38;;;;;;;5.22;1.90;;;;;;;18.35;80.97;101074.50;8288822;28;20038;-61
2023/07/18 06:20:40;;;;;;;2.65;1.50;;;;;;;18.17;81.56;101082.06;8293241;28;20034;-61
2023/07/18 06:24:41;;;;;;;5.53;1.50;;;;;;;18.21;82.51;101072.47;8291233;28;20443;-62
2023/07/18 06:28:41;;;;;;;6.32;1.90;;;;;;;18.13;81.79;101075.25;8293332;28;20140;-62
2023/07/18 06:32:42;;;;;;;7.03;2.00;;;;;;;18.13;82.72;101063.44;8293155;28;20558;-61
2023/07/18 06:36:44;;;;;;;7.22;1.80;;;;;;;18.30;82.90;101063.22;8299205;28;20038;-61
2023/07/18 06:40:45;;;;;;;6.53;2.20;;;;;;;18.65;81.62;101060.00;8292688;28;20419;-58
2023/07/18 06:44:46;;;;;;;7.30;2.03;;;;;;;18.82;81.46;101061.59;8287668;28;20350;-59
2023/07/18 06:48:47;;;;;;;3.22;1.73;;;;;;;19.02;80.76;101072.97;8299575;28;20053;-59
2023/07/18 06:52:47;;;;;;;5.47;1.42;;;;;;;19.20;79.37;101057.06;8287747;28;20607;-58
2023/07/18 06:56:48;;;;;;;6.07;1.95;;;;;;;19.30;77.71;101050.34;8288483;28;20046;-59
2023/07/18 07:00:50;;;;;;;5.55;1.60;;;;;;;19.26;77.42;101059.97;8287549;28;20052;-59
2023/07/18 07:04:50;;;;;;;6.90;1.52;;;;;;;19.41;76.78;101057.28;8289185;28;20053;-59
2023/07/18 07:08:51;;;;;;;4.75;1.30;;;;;;;19.81;74.33;101045.06;8289697;28;20061;-60
2023/07/18 07:12:51;;;;;;;53.47;4.47;;;;;;;20.57;72.00;101051.06;8289333;28;20044;-60
2023/07/18 07:16:52;;;;;;;3.15;1.20;;;;;;;21.05;68.22;101042.97;8288699;28;20045;-60
2023/07/18 07:20:53;;;;;;;4.75;1.27;;;;;;;21.54;65.85;101045.81;8289831;28;20049;-60
2023/07/18 07:24:54;;;;;;;3.22;1.35;;;;;;;21.65;64.42;101048.00;8289134;28;20052;-60
2023/07/18 07:28:54;;;;;;;1.33;0.80;;;;;;;21.92;63.95;101044.44;8288863;28;20100;-60
2023/07/18 07:32:55;;;;;;;28.85;3.00;;;;;;;22.42;63.52;101030.31;8288798;28;20041;-60
2023/07/18 07:36:56;;;;;;;4.93;1.55;;;;;;;22.43;61.97;101032.03;8288359;28;20048;-61
2023/07/18 07:40:57;;;;;;;4.53;0.88;;;;;;;22.83;61.19;101025.66;8285850;28;20419;-60
2023/07/18 07:44:57;;;;;;;2.50;1.00;;;;;;;23.23;58.88;101028.50;8270554;28;20038;-60
2023/07/18 07:48:58;;;;;;;3.78;1.33;;;;;;;22.95;59.79;101026.75;8285073;28;20130;-60
2023/07/18 07:52:58;;;;;;;5.30;1.17;;;;;;;23.34;61.50;101022.38;8287560;28;20037;-60
2023/07/18 07:56:59;;;;;;;2.25;1.00;;;;;;;23.26;60.48;101022.59;8278783;28;20038;-60
2023/07/18 08:01:01;;;;;;;4.90;0.70;;;;;;;23.19;61.47;101028.94;8288115;28;20042;-60
2023/07/18 08:05:01;;;;;;;1.77;1.00;;;;;;;23.66;61.81;101024.31;8285352;28;20049;-60
2023/07/18 08:09:02;;;;;;;3.78;1.20;;;;;;;23.49;62.30;101014.75;8285325;28;20038;-60
2023/07/18 08:13:03;;;;;;;7.18;1.40;;;;;;;23.15;63.09;101022.09;8279983;28;20038;-60
2023/07/18 08:17:04;;;;;;;4.00;1.50;;;;;;;23.29;62.46;101009.22;8278449;28;20046;-60
2023/07/18 08:21:05;;;;;;;5.32;1.35;;;;;;;22.95;61.77;101010.19;8287122;28;20092;-60
2023/07/18 08:25:05;;;;;;;3.90;1.38;;;;;;;23.07;63.05;101027.84;8286371;28;20054;-60
2023/07/18 08:29:06;;;;;;;8.15;1.88;;;;;;;23.02;62.65;101011.06;8287584;28;20080;-60
2023/07/18 08:33:09;;;;;;;7.65;1.75;;;;;;;22.65;63.28;101008.84;8286974;28;20048;-60
2023/07/18 08:37:10;;;;;;;8.57;1.50;;;;;;;23.68;61.65;100994.56;8285058;28;20030;-61
2023/07/18 08:41:11;;;;;;;3.72;1.63;;;;;;;23.72;59.61;100996.66;8285672;28;20037;-63
2023/07/18 08:45:14;;;;;;;2.42;1.50;;;;;;;23.69;59.03;100994.34;8289791;28;20069;-60
2023/07/18 08:49:18;;;;;;;5.37;1.60;;;;;;;23.42;58.96;100995.41;8290723;28;20618;-61
2023/07/18 08:53:19;;;;;;;5.32;2.05;;;;;;;23.90;58.84;100999.63;8288759;28;20038;-61
2023/07/18 08:57:20;;;;;;;7.82;1.60;;;;;;;23.78;58.84;100989.47;8292754;28;20069;-61
2023/07/18 09:01:20;;;;;;;4.80;1.67;;;;;;;23.77;58.07;100985.84;8293111;28;20492;-61
2023/07/18 09:05:31;;;;;;;5.07;1.30;;;;;;;24.32;58.29;100978.91;8293353;28;20690;-61
2023/07/18 09:09:31;;;;;;;11.32;1.50;;;;;;;24.16;56.61;100965.59;8290806;28;20100;-61
2023/07/18 09:13:41;;;;;;;4.18;1.67;;;;;;;24.66;56.80;100943.47;8292625;28;20161;-61
2023/07/18 09:17:48;;;;;;;13.57;2.33;;;;;;;24.91;55.42;100946.28;8292741;28;20037;-61
2023/07/18 09:21:58;;;;;;;14.50;2.22;;;;;;;25.04;54.28;100949.00;8292946;28;20038;-61
2023/07/18 09:26:07;;;;;;;2.70;1.60;;;;;;;25.21;53.91;100939.03;8292138;28;20053;-61
2023/07/18 09:30:08;;;;;;;4.65;2.03;;;;;;;25.25;53.89;100940.28;8288023;28;20037;-61
2023/07/18 09:34:12;;;;;;;4.15;1.40;;;;;;;24.62;55.48;100955.19;8287127;28;20076;-61
2023/07/18 09:38:13;;;;;;;;;;;;;;;25.02;55.22;100942.81;8284962;28;20041;-61
2023/07/18 09:42:16;;;;;;;11.77;2.25;;;;;;;25.56;54.78;100947.72;8290136;28;19971;-61
2023/07/18 09:46:17;;;;;;;6.70;1.50;;;;;;;25.59;53.52;100948.13;8290077;28;20150;-61
2023/07/18 09:50:17;;;;;;;7.20;1.70;;;;;;;26.25;53.76;100943.56;8290224;28;20089;-62
2023/07/18 09:54:20;;;;;;;7.47;1.85;;;;;;;26.12;52.80;100943.72;8288942;28;20092;-61
2023/07/18 09:58:21;;;;;;;7.78;1.92;;;;;;;25.85;52.72;100947.84;8287356;28;20511;-61
2023/07/18 10:02:21;;;;;;;5.30;1.45;;;;;;;26.07;52.20;100946.34;8289898;28;20475;-61
2023/07/18 10:06:22;;;;;;;3.58;1.23;;;;;;;25.79;52.73;100942.34;8288791;28;20037;-61
2023/07/18 10:10:23;;;;;;;6.60;1.65;;;;;;;25.36;53.57;100936.81;8289374;28;20044;-61
2023/07/18 10:14:30;;;;;;;7.90;1.30;;;;;;;25.59;53.51;100937.03;8289491;28;20038;-61
2023/07/18 10:18:43;;;;;;;4.90;1.20;;;;;;;27.04;50.87;100915.56;8288379;28;20114;-61
2023/07/18 10:22:49;;;;;;;5.22;1.50;;;;;;;29.13;47.36;100912.22;8288885;28;20467;-61
2023/07/18 10:26:52;;;;;;;9.25;1.33;;;;;;;27.24;50.11;100906.91;8288972;28;20034;-61
2023/07/18 10:30:57;;;;;;;6.23;1.37;;;;;;;25.94;51.61;100896.59;8288960;28;20069;-61
2023/07/18 10:34:58;;;;;;;8.45;2.17;;;;;;;25.25;53.18;100903.47;8286804;28;20128;-61
2023/07/18 10:38:59;;;;;;;7.35;1.15;;;;;;;25.20;53.42;100903.28;8288438;28;20092;-61
2023/07/18 10:43:01;;;;;;;5.78;1.50;;;;;;;27.79;49.50;100883.25;8288539;28;20124;-61
2023/07/18 10:47:12;;;;;;;3.58;1.50;;;;;;;28.91;47.22;100885.31;8287851;28;20072;-61
2023/07/18 10:51:14;;;;;;;6.40;1.20;;;;;;;29.55;45.86;100885.56;8285543;28;20129;-62
2023/07/18 10:55:16;;;;;;;5.03;1.50;;;;;;;28.22;47.58;100878.13;8287429;28;20407;-62
2023/07/18 10:59:17;;;;;;;3.97;1.48;;;;;;;27.64;48.44;100877.34;8288322;28;20034;-61
2023/07/18 11:03:22;;;;;;;6.50;1.83;;;;;;;26.95;49.63;100872.56;8287156;28;20104;-61
2023/07/18 11:07:33;;;;;;;7.85;1.40;;;;;;;26.48;50.47;100849.41;8287730;28;20046;-61
2023/07/18 11:11:37;;;;;;;4.07;1.15;;;;;;;26.63;50.51;100830.41;8288409;28;20041;-61
2023/07/18 11:15:37;;;;;;;;;;;;;;;26.84;50.15;100815.97;8287645;28;20425;-62
2023/07/18 11:19:39;;;;;;;5.95;1.35;;;;;;;27.87;48.30;100816.22;8288220;28;19921;-59
2023/07/18 11:23:40;;;;;;;2.85;1.55;;;;;;;29.61;45.38;100814.88;8287488;28;20042;-59
2023/07/18 11:27:41;;;;;;;8.88;1.73;;;;;;;31.09;43.88;100822.72;8287159;28;20113;-59
2023/07/18 11:31:42;;;;;;;4.88;1.67;;;;;;;30.50;44.10;100827.47;8287212;28;20056;-59
2023/07/18 11:35:47;;;;;;;6.28;1.60;;;;;;;32.24;42.75;100820.63;8286432;28;20112;-59
2023/07/18 11:39:48;;;;;;;5.68;2.50;;;;;;;32.82;41.62;100814.59;8286285;28;20049;-62
2023/07/18 11:43:52;;;;;;;5.15;1.73;;;;;;;34.17;39.04;100807.06;8286746;28;20073;-62
2023/07/18 11:47:54;;;;;;;5.00;1.63;;;;;;;31.81;41.64;100798.63;8286830;28;20042;-61
2023/07/18 11:51:55;;;;;;;6.38;1.60;;;;;;;32.46;42.84;100784.88;8277310;28;20044;-62
2023/07/18 11:55:55;;;;;;;1.95;1.08;;;;;;;33.43;40.40;100795.81;8285794;28;20030;-62
2023/07/18 11:59:56;;;;;;;23.73;2.65;;;;;;;34.51;39.96;100794.00;8286347;28;20103;-61
2023/07/18 12:03:56;;;;;;;8.57;1.95;;;;;;;34.82;39.72;100793.44;8284026;28;20049;-61
2023/07/18 12:07:57;;;;;;;6.10;2.03;;;;;;;32.03;40.80;100788.09;8286547;28;20484;-61
2023/07/18 12:11:57;;;;;;;5.00;1.65;;;;;;;30.27;43.76;100791.50;8286485;28;20081;-61
2023/07/18 12:15:58;;;;;;;4.05;1.60;;;;;;;28.63;46.38;100782.38;8285057;28;20088;-61
2023/07/18 12:19:58;;;;;;;4.00;1.50;;;;;;;28.22;48.37;100792.75;8286312;28;20038;-61
2023/07/18 12:23:59;;;;;;;3.00;1.40;;;;;;;27.79;47.37;100785.97;8285574;28;20050;-61
2023/07/18 12:28:00;;;;;;;4.43;1.60;;;;;;;27.27;47.59;100778.72;8286645;28;20038;-62
2023/07/18 12:32:00;;;;;;;6.20;1.50;;;;;;;27.28;49.31;100772.91;8285928;28;20072;-61
2023/07/18 12:36:01;;;;;;;5.68;1.75;;;;;;;27.48;48.63;100761.41;8283770;28;20084;-61
2023/07/18 12:40:01;;;;;;;4.43;1.52;;;;;;;27.26;49.19;100763.97;8285715;28;20561;-61
2023/07/18 12:44:01;;;;;;;6.03;1.75;;;;;;;27.50;48.65;100754.53;8285442;28;20061;-61
2023/07/18 12:48:02;;;;;;;4.35;1.73;;;;;;;27.18;48.35;100744.03;8285954;28;20045;-61
2023/07/18 12:52:04;;;;;;;2.88;1.42;;;;;;;27.27;48.63;100731.50;8285526;28;20042;-62
2023/07/18 12:56:05;;;;;;;9.25;1.58;;;;;;;27.36;48.82;100730.03;8284542;28;20092;-61
2023/07/18 13:00:06;;;;;;;2.80;1.48;;;;;;;26.87;48.50;100736.09;8285139;28;20042;-61
2023/07/18 13:04:06;;;;;;;8.35;1.85;;;;;;;27.08;49.15;100724.38;8281054;28;20378;-61
2023/07/18 13:08:07;;;;;;;6.07;1.80;;;;;;;27.49;49.15;100729.75;8292919;28;20475;-61
2023/07/18 13:12:08;;;;;;;5.82;1.40;;;;;;;27.40;48.86;100714.56;8284966;28;20280;-61
2023/07/18 13:16:08;;;;;;;3.20;1.50;;;;;;;27.44;48.39;100704.66;8284562;28;20034;-61
2023/07/18 13:20:09;;;;;;;3.83;1.83;;;;;;;27.54;49.05;100699.31;8285483;28;20507;-61
2023/07/18 13:24:10;;;;;;;3.58;1.50;;;;;;;27.41;48.50;100669.06;8284789;28;20751;-61
2023/07/18 13:28:10;;;;;;;8.18;1.85;;;;;;;27.31;48.63;100671.59;8289068;28;20038;-61
2023/07/18 13:32:11;;;;;;;4.03;1.77;;;;;;;27.15;49.02;100661.22;8282495;28;20061;-61
2023/07/18 13:36:11;;;;;;;3.47;1.50;;;;;;;26.78;49.84;100649.59;8289544;28;20700;-61
2023/07/18 13:40:12;;;;;;;3.03;1.58;;;;;;;27.00;48.62;100655.34;8290401;28;20038;-61
2023/07/18 13:44:12;;;;;;;5.75;2.05;;;;;;;26.93;48.20;100662.97;8290308;28;20072;-61
2023/07/18 13:48:13;;;;;;;4.15;1.70;;;;;;;27.06;49.13;100646.03;8290516;28;20382;-61
2023/07/18 13:52:13;;;;;;;4.32;1.77;;;;;;;27.11;49.35;100644.22;8290456;28;20087;-61
2023/07/18 13:56:13;;;;;;;7.10;1.88;;;;;;;26.60;48.93;100642.19;8288903;28;20096;-61
2023/07/18 14:00:15;;;;;;;3.35;1.73;;;;;;;26.63;49.14;100625.09;8290367;28;20088;-61
2023/07/18 14:04:17;;;;;;;6.38;1.98;;;;;;;26.53;50.72;100616.53;8289058;28;20443;-61
2023/07/18 14:08:17;;;;;;;5.03;1.40;;;;;;;26.86;49.09;100606.75;8289609;28;20042;-61
2023/07/18 14:12:17;;;;;;;4.07;1.57;;;;;;;26.69;48.68;100599.16;8289397;28;20042;-61
2023/07/18 14:16:18;;;;;;;8.80;2.17;;;;;;;26.87;49.42;100595.41;8288544;28;20281;-61
2023/07/18 14:20:18;;;;;;;2.35;1.40;;;;;;;26.84;48.63;100582.84;8280548;28;20286;-61
2023/07/18 14:24:19;;;;;;;5.93;2.38;;;;;;;26.80;49.22;100591.91;8282583;28;20407;-61
2023/07/18 14:28:19;;;;;;;4.97;1.67;;;;;;;27.05;49.47;100591.63;8289123;28;20041;-61
2023/07/18 14:32:20;;;;;;;5.53;1.52;;;;;;;27.03;48.17;100596.56;8289454;28;20061;-61
2023/07/18 14:36:20;;;;;;;3.60;1.53;;;;;;;27.15;48.32;100601.00;8287812;28;20042;-61
2023/07/18 14:40:21;;;;;;;7.45;1.70;;;;;;;27.04;47.78;100598.28;8288922;28;20639;-61
2023/07/18 14:44:21;;;;;;;5.65;1.55;;;;;;;27.10;48.08;100591.69;8288029;28;20417;-61
2023/07/18 14:48:23;;;;;;;7.63;2.00;;;;;;;27.15;48.54;100584.34;8288424;28;20266;-61
2023/07/18 14:52:23;;;;;;;7.25;1.52;;;;;;;27.12;47.91;100583.97;8284791;28;20034;-61
2023/07/18 14:56:24;;;;;;;3.38;1.38;;;;;;;26.95;47.38;100586.69;8287981;28;20045;-62
2023/07/18 15:00:25;;;;;;;5.72;1.80;;;;;;;26.77;48.49;100584.91;8288549;28;20492;-62
2023/07/18 15:04:26;;;;;;;6.93;2.17;;;;;;;26.92;48.42;100575.25;8279085;28;20042;-61
2023/07/18 15:08:26;;;;;;;8.07;2.33;;;;;;;27.20;47.76;100572.50;8299580;28;20103;-61
2023/07/18 15:12:26;;;;;;;3.50;1.40;;;;;;;27.09;48.68;100562.25;8286830;28;20578;-61
2023/07/18 15:16:28;;;;;;;3.92;1.52;;;;;;;27.07;48.34;100558.91;8285078;28;20396;-62
2023/07/18 15:20:28;;;;;;;3.08;1.20;;;;;;;27.18;48.78;100555.22;8278524;28;20041;-61
2023/07/18 15:24:29;;;;;;;4.13;1.65;;;;;;;27.40;48.20;100554.31;8280634;28;20038;-62
2023/07/18 15:28:30;;;;;;;4.05;1.80;;;;;;;27.33;48.04;100542.53;8281608;28;20274;-61
2023/07/18 15:32:30;;;;;;;4.47;1.80;;;;;;;27.53;47.56;100542.88;8278363;28;20118;-61
2023/07/18 15:36:31;;;;;;;5.18;1.58;;;;;;;27.28;48.08;100534.09;8275666;28;20042;-61
2023/07/18 15:40:31;;;;;;;6.03;1.63;;;;;;;27.35;47.91;100534.78;8278108;28;20060;-61
2023/07/18 15:44:32;;;;;;;4.55;1.33;;;;;;;27.17;48.58;100529.38;8278492;28;20519;-61
2023/07/18 15:48:33;;;;;;;3.78;1.88;;;;;;;27.16;47.96;100529.63;8278741;28;20085;-61
2023/07/18 15:52:33;;;;;;;5.30;1.75;;;;;;;27.31;47.79;100521.63;8279276;28;20108;-61
2023/07/18 15:56:33;;;;;;;5.13;1.50;;;;;;;27.24;48.71;100520.91;8276799;28;20030;-61
2023/07/18 16:00:34;;;;;;;5.85;1.63;;;;;;;27.14;48.89;100512.41;8278973;28;20124;-61
2023/07/18 16:04:34;;;;;;;4.63;1.45;;;;;;;27.26;48.67;100504.91;8273447;28;20572;-61
2023/07/18 16:08:35;;;;;;;4.57;1.50;;;;;;;27.32;48.04;100490.84;8282848;28;20488;-61
2023/07/18 16:12:36;;;;;;;2.75;1.45;;;;;;;27.39;48.19;100479.56;8279739;28;20113;-61
2023/07/18 16:16:36;;;;;;;3.30;1.80;;;;;;;27.29;48.70;100474.66;8276955;28;20061;-61
2023/07/18 16:20:36;;;;;;;3.05;1.80;;;;;;;27.45;48.21;100467.47;8280455;28;20104;-61
2023/07/18 16:24:39;;;;;;;12.07;2.03;;;;;;;27.54;48.59;100472.34;8278569;28;20140;-61
2023/07/18 16:28:39;;;;;;;5.47;1.75;;;;;;;27.39;47.47;100465.69;8281353;28;20451;-61
2023/07/18 16:32:40;;;;;;;4.63;1.80;;;;;;;27.13;47.89;100463.50;8280709;28;20119;-61
2023/07/18 16:36:40;;;;;;;4.32;2.17;;;;;;;26.98;48.46;100463.25;8278278;28;20184;-61
2023/07/18 16:40:41;;;;;;;3.00;1.83;;;;;;;27.20;48.16;100458.66;8283087;28;20046;-61
2023/07/18 16:44:42;;;;;;;4.85;1.60;;;;;;;26.98;48.29;100460.47;8282231;28;20084;-61
2023/07/18 16:48:42;;;;;;;3.80;1.60;;;;;;;26.83;48.89;100444.34;8291722;28;20050;-61
2023/07/18 16:52:45;;;;;;;5.20;2.13;;;;;;;26.79;48.96;100435.69;8283943;28;20529;-62
2023/07/18 16:56:45;;;;;;;6.00;1.88;;;;;;;26.74;48.83;100427.25;8283788;28;20448;-60
2023/07/18 17:00:46;;;;;;;4.20;1.50;;;;;;;27.04;49.36;100431.72;8284465;28;20045;-60
2023/07/18 17:04:47;;;;;;;6.47;1.67;;;;;;;27.13;48.89;100432.97;8286680;28;20133;-60
2023/07/18 17:08:47;;;;;;;4.47;1.70;;;;;;;27.00;48.66;100424.97;8290657;28;20045;-60
2023/07/18 17:12:48;;;;;;;4.30;1.40;;;;;;;27.08;49.02;100417.06;8290720;28;20413;-60
2023/07/18 17:16:48;;;;;;;4.70;2.08;;;;;;;27.21;48.43;100415.91;8289614;28;20050;-60
2023/07/18 17:20:48;;;;;;;6.95;1.70;;;;;;;27.08;47.99;100416.25;8289179;28;20046;-61
2023/07/18 17:24:50;;;;;;;6.78;1.63;;;;;;;26.96;49.05;100412.69;8289813;28;20048;-61
2023/07/18 17:28:51;;;;;;;6.63;1.65;;;;;;;26.92;48.73;100422.59;8282339;28;20097;-61
2023/07/18 17:32:51;;;;;;;6.85;2.33;;;;;;;26.89;50.27;100412.81;8290266;28;20065;-61
2023/07/18 17:36:52;;;;;;;4.05;2.10;;;;;;;26.93;49.39;100415.97;8288739;28;20041;-61
2023/07/18 17:40:52;;;;;;;3.80;1.70;;;;;;;26.88;49.61;100422.25;8288475;28;20053;-60
2023/07/18 17:44:55;;;;;;;3.00;1.55;;;;;;;26.87;49.64;100408.63;8288982;28;20084;-61
2023/07/18 17:48:55;;;;;;;3.00;1.75;;;;;;;26.79;49.39;100407.94;8285908;28;20335;-61
2023/07/18 17:52:56;;;;;;;3.80;1.77;;;;;;;26.71;49.67;100405.56;8289559;28;20037;-61
2023/07/18 17:56:56;;;;;;;7.47;2.03;;;;;;;26.64;49.42;100402.09;8288724;28;20507;-61
2023/07/18 18:00:57;;;;;;;9.52;1.80;;;;;;;26.62;50.23;100401.50;8288904;28;20492;-61
2023/07/18 18:04:58;;;;;;;11.02;2.03;;;;;;;26.52;49.88;100392.94;8288523;28;20099;-61
2023/07/18 18:08:58;;;;;;;3.97;1.77;;;;;;;26.34;50.07;100392.28;8289120;28;20042;-61
2023/07/18 18:12:58;;;;;;;4.93;1.67;;;;;;;26.23;50.76;100391.22;8288049;28;20046;-61
2023/07/18 18:16:59;;;;;;;3.65;1.73;;;;;;;26.10;51.19;100397.06;8288463;28;20042;-61
2023/07/18 18:21:00;;;;;;;6.03;1.80;;;;;;;26.01;51.43;100398.50;8287602;28;20516;-61
2023/07/18 18:25:01;;;;;;;8.00;2.08;;;;;;;25.89;51.41;100394.06;8283759;28;20046;-61
2023/07/18 18:29:07;;;;;;;7.90;2.15;;;;;;;25.76;52.04;100388.75;8288181;28;20403;-61
2023/07/18 18:33:07;;;;;;;3.70;1.95;;;;;;;25.65;52.37;100393.25;8286259;28;20516;-61
2023/07/18 18:37:08;;;;;;;9.18;2.40;;;;;;;25.55;52.63;100387.44;8290959;28;20049;-61